Time;durP1;ratioP1;P1;durP2;ratioP2;P2;SDS_P1;SDS_P2;PMS_P1;PMS_P2;Temp;Humidity;BMP_temperature;BMP_pressure;BME280_temperature;BME280_humidity;BME280_pressure;Samples;Min_cycle;Max_cycle;Signal;HPM_P1;HPM_P2
2022/06/14 00:03:06;;;;;;;1.50;1.40;;;;;;;-144.82;100.00;71671.09;5017162;28;20037;-76
2022/06/14 00:05:32;;;;;;;3.15;1.52;;;;;;;-144.82;100.00;71671.09;5017089;28;20030;-76
2022/06/14 00:07:57;;;;;;;1.40;1.30;;;;;;;-144.82;100.00;71671.09;5016751;28;20426;-76
2022/06/14 00:10:23;;;;;;;1.67;1.38;;;;;;;-144.82;100.00;71671.09;5016315;28;20485;-76
2022/06/14 00:12:48;;;;;;;3.38;1.58;;;;;;;-144.82;100.00;71671.09;5015361;28;20025;-76
2022/06/14 00:15:14;;;;;;;1.90;1.33;;;;;;;-144.82;100.00;71671.09;5016912;28;20077;-76
2022/06/14 00:17:39;;;;;;;2.53;1.30;;;;;;;-144.82;100.00;71671.09;5015447;28;20041;-75
2022/06/14 00:20:05;;;;;;;3.75;1.42;;;;;;;-144.82;100.00;71671.09;5016884;28;20040;-77
2022/06/14 00:22:33;;;;;;;1.15;0.95;;;;;;;-144.82;100.00;71671.09;5016889;28;20428;-75
2022/06/14 00:24:59;;;;;;;2.05;1.10;;;;;;;-144.82;100.00;71671.09;5015062;28;20034;-75
2022/06/14 00:27:24;;;;;;;2.42;1.35;;;;;;;-144.82;100.00;71671.09;5016748;28;20025;-75
2022/06/14 00:29:49;;;;;;;2.58;1.30;;;;;;;-144.82;100.00;71671.09;5015453;28;20475;-76
2022/06/14 00:32:15;;;;;;;1.65;1.50;;;;;;;-144.82;100.00;71671.09;5015164;28;20030;-76
2022/06/14 00:34:40;;;;;;;2.80;1.33;;;;;;;-144.82;100.00;71671.09;5016273;28;20034;-76
2022/06/14 00:37:15;;;;;;;2.45;1.30;;;;;;;-144.82;100.00;71671.09;5016444;28;20040;-76
2022/06/14 00:39:40;;;;;;;1.23;1.15;;;;;;;-144.82;100.00;71671.09;5014963;28;20434;-75
2022/06/14 00:42:09;;;;;;;2.33;1.17;;;;;;;-144.82;100.00;71671.09;5016149;28;20061;-76
2022/06/14 00:44:34;;;;;;;5.65;1.13;;;;;;;-144.82;100.00;71671.09;5014902;28;20475;-76
2022/06/14 00:47:05;;;;;;;3.65;1.33;;;;;;;-144.82;100.00;71671.09;5016096;28;20030;-76
2022/06/14 00:49:52;;;;;;;3.97;1.98;;;;;;;-144.82;100.00;71671.09;5014863;28;20475;-76
2022/06/14 00:52:28;;;;;;;1.90;1.58;;;;;;;-144.82;100.00;71671.09;5014711;28;20045;-74
2022/06/14 00:55:03;;;;;;;1.50;1.20;;;;;;;-144.82;100.00;71671.09;5015929;28;20034;-76
2022/06/14 00:57:34;;;;;;;1.55;1.05;;;;;;;-144.82;100.00;71671.09;5014584;28;20034;-76
2022/06/14 01:00:10;;;;;;;3.78;1.35;;;;;;;-144.82;100.00;71671.09;5014795;28;20379;-76
2022/06/14 01:02:44;;;;;;;1.70;1.15;;;;;;;-144.82;100.00;71671.09;4998409;28;20025;-76
2022/06/14 01:05:13;;;;;;;1.77;0.88;;;;;;;-144.82;100.00;71671.09;4998180;28;20490;-75
2022/06/14 01:07:43;;;;;;;1.58;1.42;;;;;;;-144.82;100.00;71671.09;5014511;28;20036;-76
2022/06/14 01:10:12;;;;;;;4.07;1.17;;;;;;;-144.82;100.00;71671.09;5015295;28;20398;-77
2022/06/14 01:12:41;;;;;;;8.13;1.30;;;;;;;-144.82;100.00;71671.09;4997943;28;20495;-77
2022/06/14 01:15:19;;;;;;;1.50;1.40;;;;;;;-144.82;100.00;71671.09;5015771;28;20022;-75
2022/06/14 01:17:48;;;;;;;2.63;1.58;;;;;;;-144.82;100.00;71671.09;5015707;28;20128;-75
2022/06/14 01:20:17;;;;;;;1.30;1.20;;;;;;;-144.82;100.00;71671.09;5014439;28;20479;-77
2022/06/14 01:22:43;;;;;;;3.25;1.30;;;;;;;-144.82;100.00;71671.09;5014316;28;20030;-75
2022/06/14 01:25:09;;;;;;;2.08;1.45;;;;;;;-144.82;100.00;71671.09;5013976;28;20037;-75
2022/06/14 01:27:36;;;;;;;2.28;1.33;;;;;;;-144.82;100.00;71671.09;5014164;28;20037;-76
2022/06/14 01:30:19;;;;;;;2.03;1.30;;;;;;;-144.82;100.00;71671.09;5014329;28;20034;-74
2022/06/14 01:32:51;;;;;;;2.15;1.25;;;;;;;-144.82;100.00;71671.09;5014258;28;20034;-75
2022/06/14 01:35:20;;;;;;;2.58;1.88;;;;;;;-144.82;100.00;71671.09;5015346;28;20434;-76
2022/06/14 01:37:48;;;;;;;1.33;1.13;;;;;;;-144.82;100.00;71671.09;5013832;28;20030;-76
2022/06/14 01:40:13;;;;;;;2.97;1.77;;;;;;;-144.82;100.00;71671.09;5013958;28;20044;-76
2022/06/14 01:43:05;;;;;;;1.60;1.50;;;;;;;-144.82;100.00;71671.09;5015012;28;20038;-75
2022/06/14 01:45:37;;;;;;;1.83;1.27;;;;;;;-144.82;100.00;71671.09;4978199;28;20046;-75
2022/06/14 01:48:11;;;;;;;5.07;1.50;;;;;;;-144.82;100.00;71671.09;5013677;28;20105;-75
2022/06/14 01:53:43;;;;;;;4.70;1.90;;;;;;;-144.82;100.00;71671.09;5014816;28;20032;-75
2022/06/14 01:56:17;;;;;;;2.60;1.52;;;;;;;-144.82;100.00;71671.09;5014916;28;20036;-76
2022/06/14 01:59:08;;;;;;;5.70;1.85;;;;;;;-144.82;100.00;71671.09;4997043;28;20030;-75
2022/06/14 02:01:49;;;;;;;1.92;1.50;;;;;;;-144.82;100.00;71671.09;5014217;28;20049;-76
2022/06/14 02:04:39;;;;;;;3.63;1.90;;;;;;;-144.82;100.00;71671.09;5014674;28;20025;-74
2022/06/14 02:07:09;;;;;;;3.05;1.90;;;;;;;-144.82;100.00;71671.09;5013398;28;20105;-75
2022/06/14 02:10:02;;;;;;;3.55;1.88;;;;;;;-144.82;100.00;71671.09;5012978;28;20133;-75
2022/06/14 02:12:33;;;;;;;2.35;1.65;;;;;;;-144.82;100.00;71671.09;4996940;28;20018;-76
2022/06/14 02:15:03;;;;;;;2.10;1.48;;;;;;;-144.82;100.00;71671.09;5014620;28;20474;-76
2022/06/14 02:17:34;;;;;;;2.80;1.65;;;;;;;-144.82;100.00;71671.09;4996717;28;20025;-74
2022/06/14 02:20:04;;;;;;;3.28;1.55;;;;;;;-144.82;100.00;71671.09;5012799;28;20478;-75
2022/06/14 02:22:40;;;;;;;1.80;1.70;;;;;;;-144.82;100.00;71671.09;4996625;28;20487;-75
2022/06/14 02:25:11;;;;;;;2.67;1.67;;;;;;;-144.82;100.00;71671.09;5012909;28;20456;-75
2022/06/14 02:27:51;;;;;;;1.98;1.75;;;;;;;-144.82;100.00;71671.09;5012855;28;20112;-76
2022/06/14 02:30:18;;;;;;;3.72;1.85;;;;;;;-144.82;100.00;71671.09;5014375;28;20104;-76
2022/06/14 02:32:48;;;;;;;1.60;1.30;;;;;;;-144.82;100.00;71671.09;5013180;28;20030;-76
2022/06/14 02:35:20;;;;;;;4.20;2.05;;;;;;;-144.82;100.00;71671.09;5003477;28;20060;-76
2022/06/14 02:37:53;;;;;;;2.42;1.52;;;;;;;-144.82;100.00;71671.09;5020559;28;20034;-76
2022/06/14 02:40:29;;;;;;;2.88;1.58;;;;;;;-144.82;100.00;71671.09;4999102;28;20371;-76
2022/06/14 02:43:00;;;;;;;1.95;1.30;;;;;;;-144.82;100.00;71671.09;4996315;28;20499;-76
2022/06/14 02:45:48;;;;;;;2.92;1.40;;;;;;;-144.82;100.00;71671.09;5012790;28;20030;-76
2022/06/14 02:48:29;;;;;;;3.92;1.38;;;;;;;-144.82;100.00;71671.09;5012770;28;20037;-76
2022/06/14 02:51:11;;;;;;;5.43;2.72;;;;;;;-144.82;100.00;71671.09;4996327;28;20030;-76
2022/06/14 02:53:44;;;;;;;2.35;1.05;;;;;;;-144.82;100.00;71671.09;5013807;28;20052;-75
2022/06/14 02:56:16;;;;;;;2.53;1.20;;;;;;;-144.82;100.00;71671.09;5013957;28;20053;-76
2022/06/14 02:58:50;;;;;;;2.83;1.40;;;;;;;-144.82;100.00;71671.09;5013833;28;20022;-75
2022/06/14 03:01:19;;;;;;;2.55;1.60;;;;;;;-144.82;100.00;71671.09;4996700;28;20418;-75
2022/06/14 03:03:50;;;;;;;5.07;1.90;;;;;;;-144.82;100.00;71671.09;5012264;28;20034;-75
2022/06/14 03:06:25;;;;;;;4.95;1.52;;;;;;;-144.82;100.00;71671.09;5013944;28;20057;-75
2022/06/14 03:08:55;;;;;;;2.58;1.20;;;;;;;-144.82;100.00;71671.09;5013757;28;20042;-76
2022/06/14 03:11:37;;;;;;;1.70;1.15;;;;;;;-144.82;100.00;71671.09;5013631;28;20444;-75
2022/06/14 03:14:39;;;;;;;2.17;1.42;;;;;;;-144.82;100.00;71671.09;5012620;28;20025;-76
2022/06/14 03:17:19;;;;;;;3.40;1.37;;;;;;;-144.82;100.00;71671.09;5013747;28;20249;-76
2022/06/14 03:19:49;;;;;;;1.35;1.20;;;;;;;-144.82;100.00;71671.09;5013898;28;20076;-76
2022/06/14 03:22:41;;;;;;;3.03;1.75;;;;;;;-144.82;100.00;71671.09;5013948;28;20532;-74
2022/06/14 03:25:10;;;;;;;3.00;1.35;;;;;;;-144.82;100.00;71671.09;5012311;28;20026;-76
2022/06/14 03:27:40;;;;;;;1.50;1.20;;;;;;;-144.82;100.00;71671.09;5012709;28;20044;-75
2022/06/14 03:30:20;;;;;;;2.13;1.17;;;;;;;-144.82;100.00;71671.09;4995853;28;20442;-76
2022/06/14 03:32:48;;;;;;;2.13;1.30;;;;;;;-144.82;100.00;71671.09;5016553;28;20026;-76
2022/06/14 03:35:24;;;;;;;6.20;1.55;;;;;;;-144.82;100.00;71671.09;5017701;28;20079;-76
2022/06/14 03:37:49;;;;;;;1.42;1.25;;;;;;;-144.82;100.00;71671.09;5016497;28;20029;-76
2022/06/14 03:40:17;;;;;;;2.25;1.30;;;;;;;-144.82;100.00;71671.09;5017440;28;20425;-74
2022/06/14 03:42:43;;;;;;;2.42;1.00;;;;;;;-144.82;100.00;71671.09;5016142;28;20025;-74
2022/06/14 03:45:10;;;;;;;3.88;1.27;;;;;;;-144.82;100.00;71671.09;5016062;28;20029;-76
2022/06/14 03:47:35;;;;;;;5.55;1.38;;;;;;;-144.82;100.00;71671.09;5016255;28;20563;-76
2022/06/14 03:50:11;;;;;;;1.55;1.10;;;;;;;-144.82;100.00;71671.09;5015937;28;20104;-74
2022/06/14 03:52:58;;;;;;;3.58;2.10;;;;;;;-144.82;100.00;71671.09;4999463;28;20155;-76
2022/06/14 03:55:57;;;;;;;1.00;1.00;;;;;;;-144.82;100.00;71671.09;5017078;28;20030;-75
2022/06/14 03:58:36;;;;;;;1.52;1.10;;;;;;;-144.82;100.00;71671.09;4933551;28;20490;-76
2022/06/14 04:01:09;;;;;;;1.20;1.10;;;;;;;-144.82;100.00;71671.09;5015746;28;20026;-76
2022/06/14 04:03:41;;;;;;;2.55;0.88;;;;;;;-144.82;100.00;71671.09;5016727;28;20025;-76
2022/06/14 04:06:16;;;;;;;2.75;1.10;;;;;;;-144.82;100.00;71671.09;5017398;28;20467;-76
2022/06/14 04:09:09;;;;;;;3.03;1.20;;;;;;;-144.82;100.00;71671.09;4998943;28;20076;-77
2022/06/14 04:11:53;;;;;;;1.80;1.30;;;;;;;-144.82;100.00;71671.09;5015493;28;20115;-76
2022/06/14 04:14:49;;;;;;;1.20;1.10;;;;;;;-144.82;100.00;71671.09;5015365;28;20421;-76
2022/06/14 04:17:26;;;;;;;3.85;1.58;;;;;;;-144.82;100.00;71671.09;5015458;28;20445;-76
2022/06/14 04:20:02;;;;;;;1.50;1.23;;;;;;;-144.82;100.00;71671.09;5015433;28;20054;-76
2022/06/14 04:22:46;;;;;;;3.67;1.17;;;;;;;-144.82;100.00;71671.09;5014072;28;20353;-76
2022/06/14 04:25:20;;;;;;;2.28;1.25;;;;;;;-144.82;100.00;71671.09;5015350;28;20088;-76
2022/06/14 04:27:54;;;;;;;3.20;1.23;;;;;;;-144.82;100.00;71671.09;5014192;28;20105;-76
2022/06/14 04:30:35;;;;;;;2.33;1.35;;;;;;;-144.82;100.00;71671.09;5015069;28;20030;-76
2022/06/14 04:33:07;;;;;;;1.65;1.10;;;;;;;-144.82;100.00;71671.09;4997962;28;20030;-76
2022/06/14 04:35:50;;;;;;;2.78;1.42;;;;;;;-144.82;100.00;71671.09;5013783;28;20021;-76
2022/06/14 04:39:04;;;;;;;3.88;1.33;;;;;;;-144.82;100.00;71671.09;5014146;28;20450;-76
2022/06/14 04:41:56;;;;;;;2.13;1.13;;;;;;;-144.82;100.00;71671.09;5004043;28;20065;-76
2022/06/14 04:44:50;;;;;;;4.05;0.98;;;;;;;-144.82;100.00;71671.09;4997255;28;20025;-74
2022/06/14 04:47:39;;;;;;;3.25;1.40;;;;;;;-144.82;100.00;71671.09;4997754;28;20026;-73
2022/06/14 04:50:17;;;;;;;1.83;0.98;;;;;;;-144.82;100.00;71671.09;5013842;28;20029;-74
2022/06/14 04:52:49;;;;;;;1.48;1.38;;;;;;;-144.82;100.00;71671.09;5014009;28;20029;-77
2022/06/14 04:55:19;;;;;;;5.97;0.90;;;;;;;-144.82;100.00;71671.09;5014119;28;20037;-78
2022/06/14 04:58:04;;;;;;;2.47;1.20;;;;;;;-144.82;100.00;71671.09;5015382;28;20026;-77
2022/06/14 05:00:40;;;;;;;3.30;1.48;;;;;;;-144.82;100.00;71671.09;4997549;28;20117;-78
2022/06/14 05:03:08;;;;;;;4.15;2.03;;;;;;;-144.82;100.00;71671.09;5014541;28;20046;-79
2022/06/14 05:05:44;;;;;;;3.47;1.83;;;;;;;-144.82;100.00;71671.09;5015100;28;20076;-78
2022/06/14 05:11:21;;;;;;;3.45;1.77;;;;;;;;;;5070798;28;20685;-75
2022/06/14 05:13:48;;;;;;;1.35;1.15;;;;;;;;;;5071287;28;20359;-79
2022/06/14 05:16:18;;;;;;;4.18;1.88;;;;;;;;;;5072201;28;20025;-78
2022/06/14 05:19:01;;;;;;;2.70;1.27;;;;;;;;;;5055330;28;20017;-80
2022/06/14 05:21:44;;;;;;;5.20;1.40;;;;;;;;;;5051196;28;20059;-79
2022/06/14 05:24:11;;;;;;;2.00;1.33;;;;;;;;;;5050888;28;20172;-79
2022/06/14 05:26:42;;;;;;;2.53;1.33;;;;;;;;;;5069698;28;20028;-80
2022/06/14 05:29:39;;;;;;;3.22;1.20;;;;;;;;;;5069540;28;20017;-81
2022/06/14 05:32:13;;;;;;;1.10;1.00;;;;;;;;;;5069964;28;20040;-82
2022/06/14 05:34:48;;;;;;;1.42;1.27;;;;;;;;;;5070180;28;20098;-83
2022/06/14 05:37:29;;;;;;;2.65;1.85;;;;;;;;;;5070261;28;20028;-78
2022/06/14 05:39:56;;;;;;;3.67;1.45;;;;;;;;;;5070838;28;20017;-81
2022/06/14 05:42:25;;;;;;;3.45;1.20;;;;;;;;;;5079527;28;20428;-82
2022/06/14 05:44:53;;;;;;;3.70;1.23;;;;;;;;;;5083789;28;20016;-81
2022/06/14 05:47:22;;;;;;;1.38;1.08;;;;;;;;;;5082434;28;20453;-82
2022/06/14 05:49:53;;;;;;;3.58;0.85;;;;;;;;;;5081144;28;20020;-82
2022/06/14 05:52:38;;;;;;;5.88;1.15;;;;;;;;;;5077491;28;20012;-83
2022/06/14 05:55:09;;;;;;;1.17;0.88;;;;;;;;;;5079031;28;20159;-81
2022/06/14 05:57:39;;;;;;;1.75;1.00;;;;;;;;;;5076580;28;20031;-80
2022/06/14 06:00:10;;;;;;;2.92;0.95;;;;;;;;;;5069532;28;20024;-80
2022/06/14 06:02:38;;;;;;;4.13;1.40;;;;;;;;;;5070007;28;20017;-81
2022/06/14 06:05:15;;;;;;;1.40;0.85;;;;;;;;;;5068152;28;20047;-78
2022/06/14 06:07:49;;;;;;;1.40;0.90;;;;;;;;;;5067997;28;20017;-78
2022/06/14 06:10:16;;;;;;;3.50;1.10;;;;;;;;;;5067993;28;20544;-79
2022/06/14 06:12:52;;;;;;;2.03;0.98;;;;;;;;;;5067796;28;20017;-79
2022/06/14 06:15:23;;;;;;;2.35;0.82;;;;;;;;;;5067857;28;20397;-76
2022/06/14 06:17:50;;;;;;;1.58;0.80;;;;;;;;;;5069173;28;20021;-77
2022/06/14 06:20:25;;;;;;;1.27;0.65;;;;;;;;;;5066659;28;20025;-76
2022/06/14 06:23:04;;;;;;;5.68;0.80;;;;;;;;;;5054481;28;20028;-76
2022/06/14 06:25:33;;;;;;;1.55;0.90;;;;;;;;;;5056188;28;20017;-76
2022/06/14 06:28:07;;;;;;;2.50;1.45;;;;;;;;;;5055996;28;20462;-78
2022/06/14 06:30:37;;;;;;;3.13;1.00;;;;;;;;;;5055914;28;20029;-78
2022/06/14 06:33:03;;;;;;;3.90;1.10;;;;;;;;;;5043737;28;20116;-78
2022/06/14 06:35:47;;;;;;;2.15;1.02;;;;;;;;;;5066506;28;20432;-78
2022/06/14 06:38:20;;;;;;;1.20;1.05;;;;;;;;;;5061352;28;20114;-78
2022/06/14 06:41:49;;;;;;;1.60;1.20;;;;;;;;;;5056245;28;20029;-78
2022/06/14 06:43:36;;;;;;;0.73;0.73;;;;;;;;;;5061708;28;20466;-79
2022/06/14 06:46:03;;;;;;;4.43;1.38;;;;;;;;;;5055655;28;20033;-78
2022/06/14 06:48:33;;;;;;;4.88;1.17;;;;;;;;;;5066113;28;20037;-77
2022/06/14 06:51:01;;;;;;;2.33;1.00;;;;;;;;;;5067209;28;20477;-81
2022/06/14 06:53:34;;;;;;;2.35;1.10;;;;;;;;;;5063670;28;20017;-80
2022/06/14 06:56:11;;;;;;;1.23;1.00;;;;;;;;;;5075624;28;20461;-82
2022/06/14 06:58:37;;;;;;;1.38;0.70;;;;;;;;;;5074303;28;20012;-79
2022/06/14 07:01:10;;;;;;;3.45;1.00;;;;;;;;;;5074953;28;20031;-78
2022/06/14 07:03:54;;;;;;;2.80;0.80;;;;;;;;;;5074964;28;20073;-81
2022/06/14 07:06:27;;;;;;;2.38;1.10;;;;;;;;;;5075036;28;20119;-80
2022/06/14 07:08:56;;;;;;;2.88;0.90;;;;;;;;;;5074563;28;20034;-78
2022/06/14 07:11:24;;;;;;;2.03;1.10;;;;;;;;;;5074663;28;20096;-79
2022/06/14 07:13:53;;;;;;;2.50;0.70;;;;;;;;;;5074104;28;20017;-80
2022/06/14 07:16:21;;;;;;;3.20;0.90;;;;;;;;;;5074679;28;20035;-80
2022/06/14 07:19:02;;;;;;;3.60;0.82;;;;;;;;;;5073346;28;20082;-79
2022/06/14 07:21:33;;;;;;;1.75;0.70;;;;;;;;;;5074337;28;20029;-79
2022/06/14 07:24:19;;;;;;;1.42;0.50;;;;;;;;;;5050258;28;20026;-79
2022/06/14 07:26:47;;;;;;;1.52;0.80;;;;;;;;;;5041711;28;20025;-80
2022/06/14 07:29:18;;;;;;;3.88;1.20;;;;;;;;;;5034614;28;20025;-79
2022/06/14 07:31:48;;;;;;;1.33;0.63;;;;;;;;;;5048755;28;20017;-81
2022/06/14 07:34:15;;;;;;;2.05;0.75;;;;;;;;;;5050721;28;20103;-80
2022/06/14 07:36:46;;;;;;;2.17;0.60;;;;;;;;;;5054181;28;20028;-82
2022/06/14 07:39:30;;;;;;;2.15;1.40;;;;;;;;;;5054010;28;20092;-82
2022/06/14 07:41:55;;;;;;;2.50;0.60;;;;;;;;;;5054827;28;20028;-87
2022/06/14 07:44:34;;;;;;;1.38;0.60;;;;;;;;;;5054532;28;20025;-80
2022/06/14 07:47:11;;;;;;;2.08;0.50;;;;;;;;;;5054347;28;20339;-77
2022/06/14 07:50:04;;;;;;;3.35;0.60;;;;;;;;;;5054355;28;20020;-75
2022/06/14 07:52:36;;;;;;;2.75;0.90;;;;;;;;;;5051969;28;20071;-75
2022/06/14 07:55:21;;;;;;;2.33;0.93;;;;;;;;;;5054414;28;20048;-75
2022/06/14 07:57:48;;;;;;;1.90;0.60;;;;;;;;;;5053964;28;20121;-75
2022/06/14 08:03:10;;;;;;;1.67;0.55;;;;;;;;;;5054389;28;20094;-76
2022/06/14 08:05:37;;;;;;;1.20;0.65;;;;;;;;;;5054254;28;20441;-76
2022/06/14 08:08:04;;;;;;;2.10;0.88;;;;;;;;;;5056211;28;20465;-80
2022/06/14 08:10:33;;;;;;;3.03;1.30;;;;;;;;;;5055203;28;20041;-80
2022/06/14 08:13:07;;;;;;;2.13;0.80;;;;;;;;;;5057655;28;20033;-81
2022/06/14 08:15:40;;;;;;;1.42;0.60;;;;;;;;;;5060675;28;20023;-83
2022/06/14 08:18:05;;;;;;;5.90;1.10;;;;;;;;;;5055321;28;20112;-77
2022/06/14 08:20:35;;;;;;;3.90;1.37;;;;;;;;;;5058622;28;20532;-77
2022/06/14 08:23:04;;;;;;;2.33;1.02;;;;;;;;;;5063711;28;20028;-78
2022/06/14 08:25:32;;;;;;;2.42;1.20;;;;;;;;;;5055138;28;20104;-79
2022/06/14 08:28:02;;;;;;;2.88;0.60;;;;;;;;;;5058615;28;20076;-78
2022/06/14 08:30:48;;;;;;;1.07;0.70;;;;;;;;;;5060934;28;20021;-78
2022/06/14 08:33:18;;;;;;;1.33;0.63;;;;;;;;;;5045785;28;20059;-78
2022/06/14 08:35:46;;;;;;;3.90;0.88;;;;;;;;;;5043523;28;20021;-78
2022/06/14 08:38:40;;;;;;;2.60;1.17;;;;;;;;;;5048908;28;20069;-78
2022/06/14 08:41:17;;;;;;;3.17;0.85;;;;;;;;;;5047015;28;20068;-76
2022/06/14 08:43:52;;;;;;;4.45;0.82;;;;;;;;;;5033891;28;20026;-76
2022/06/14 08:46:17;;;;;;;7.28;0.88;;;;;;;;;;5032691;28;20017;-76
2022/06/14 08:49:02;;;;;;;3.77;1.20;;;;;;;;;;5036781;28;20017;-76
2022/06/14 08:51:46;;;;;;;3.65;0.95;;;;;;;;;;5042169;28;20271;-76
2022/06/14 08:54:20;;;;;;;2.25;0.80;;;;;;;;;;5057465;28;20028;-76
2022/06/14 08:57:04;;;;;;;2.90;1.10;;;;;;;;;;5039752;28;20485;-76
2022/06/14 08:59:36;;;;;;;1.80;0.90;;;;;;;;;;5042473;28;20625;-77
2022/06/14 09:02:04;;;;;;;8.73;0.80;;;;;;;;;;5050766;28;20032;-76
2022/06/14 09:04:33;;;;;;;1.50;0.80;;;;;;;;;;5049777;28;20025;-76
2022/06/14 09:07:28;;;;;;;3.15;0.85;;;;;;;;;;5051055;28;20071;-77
2022/06/14 09:09:53;;;;;;;3.65;0.60;;;;;;;;;;5051520;28;20044;-77
2022/06/14 09:12:31;;;;;;;3.57;0.90;;;;;;;;;;5052448;28;20108;-76
2022/06/14 09:15:08;;;;;;;3.42;0.68;;;;;;;;;;5053118;28;20029;-76
2022/06/14 09:17:52;;;;;;;7.47;1.02;;;;;;;;;;5053227;28;20025;-76
2022/06/14 09:20:17;;;;;;;3.15;0.85;;;;;;;;;;5053003;28;20112;-77
2022/06/14 09:22:42;;;;;;;4.13;1.00;;;;;;;;;;5053404;28;20113;-77
2022/06/14 09:25:13;;;;;;;2.73;0.90;;;;;;;;;;5053174;28;20115;-77
2022/06/14 09:27:45;;;;;;;1.33;0.80;;;;;;;;;;5053011;28;20028;-76
2022/06/14 09:30:25;;;;;;;6.72;1.60;;;;;;;;;;5053286;28;20037;-76
2022/06/14 09:33:10;;;;;;;0.65;0.50;;;;;;;;;;5052800;28;20024;-76
2022/06/14 09:35:38;;;;;;;3.40;1.10;;;;;;;;;;5053148;28;20068;-76
2022/06/14 09:38:18;;;;;;;1.35;0.70;;;;;;;;;;5053037;28;20045;-77
2022/06/14 09:40:47;;;;;;;4.47;0.73;;;;;;;;;;5049881;28;20112;-78
2022/06/14 09:43:21;;;;;;;9.50;1.10;;;;;;;;;;5052642;28;20056;-76
2022/06/14 09:46:19;;;;;;;2.92;0.80;;;;;;;;;;5051376;28;20438;-76
2022/06/14 09:48:44;;;;;;;4.47;1.05;;;;;;;;;;5051593;28;20120;-76
2022/06/14 09:51:15;;;;;;;1.63;0.80;;;;;;;;;;5052636;28;20152;-76
2022/06/14 09:53:44;;;;;;;4.00;0.82;;;;;;;;;;5051560;28;20033;-76
2022/06/14 09:56:32;;;;;;;2.08;0.70;;;;;;;;;;5052336;28;20385;-77
2022/06/14 09:59:13;;;;;;;5.22;0.80;;;;;;;;;;5056135;28;20032;-76
2022/06/14 10:01:53;;;;;;;0.52;0.47;;;;;;;;;;5056581;28;20148;-78
2022/06/14 10:04:30;;;;;;;1.05;0.95;;;;;;;;;;5056511;28;20355;-78
2022/06/14 10:07:01;;;;;;;58.03;8.48;;;;;;;;;;5055954;28;20021;-76
2022/06/14 10:09:36;;;;;;;3.58;0.60;;;;;;;;;;5054535;28;20539;-77
2022/06/14 10:12:11;;;;;;;1.38;0.63;;;;;;;;;;5055984;28;20373;-77
2022/06/14 10:14:42;;;;;;;8.52;2.05;;;;;;;;;;5056019;28;20029;-78
2022/06/14 10:17:25;;;;;;;1.92;0.98;;;;;;;;;;5054064;28;20021;-77
2022/06/14 10:20:13;;;;;;;3.53;0.73;;;;;;;;;;5054754;28;20048;-76
2022/06/14 10:22:57;;;;;;;3.45;0.80;;;;;;;;;;5053302;28;20033;-78
2022/06/14 10:28:50;;;;;;;2.47;0.82;;;;;;;;;;5056371;28;20044;-77
2022/06/14 10:31:21;;;;;;;5.20;1.05;;;;;;;;;;5051587;28;20033;-77
2022/06/14 10:33:53;;;;;;;2.92;0.73;;;;;;;;;;5054535;28;20021;-78
2022/06/14 10:36:18;;;;;;;;;;;;;;;;;;5056330;28;20020;-78
2022/06/14 10:38:46;;;;;;;2.13;0.67;;;;;;;;;;5056021;28;19911;-78
2022/06/14 10:41:32;;;;;;;0.93;0.30;;;;;;;;;;5055997;28;20496;-78
2022/06/14 10:44:16;;;;;;;1.48;0.60;;;;;;;;;;5055820;28;20474;-78
2022/06/14 10:46:48;;;;;;;2.65;0.90;;;;;;;;;;5054366;28;20021;-78
2022/06/14 10:49:19;;;;;;;2.58;0.70;;;;;;;;;;5054376;28;20048;-77
2022/06/14 10:51:44;;;;;;;;;;;;;;;;;;5055893;28;20092;-76
2022/06/14 10:54:28;;;;;;;3.97;0.80;;;;;;;;;;5055724;28;19936;-77
2022/06/14 10:56:53;;;;;;;2.15;0.70;;;;;;;;;;5055716;28;20484;-78
2022/06/14 10:59:22;;;;;;;3.03;0.70;;;;;;;;;;5055199;28;20032;-78
2022/06/14 11:01:58;;;;;;;2.50;1.30;;;;;;;;;;5055177;28;20423;-76
2022/06/14 11:04:35;;;;;;;4.13;0.90;;;;;;;;;;5053829;28;20131;-76
2022/06/14 11:07:21;;;;;;;5.60;1.55;;;;;;;;;;5054009;28;20052;-77
2022/06/14 11:09:56;;;;;;;5.38;1.23;;;;;;;;;;5058098;28;20068;-77
2022/06/14 11:12:21;;;;;;;8.23;1.38;;;;;;;;;;5057655;28;20029;-77
2022/06/14 11:15:05;;;;;;;4.50;0.80;;;;;;;;;;5054076;28;20485;-77
2022/06/14 11:17:33;;;;;;;0.68;0.65;;;;;;;;;;5055588;28;20021;-77
2022/06/14 11:20:17;;;;;;;1.30;0.60;;;;;;;;;;5054335;28;20020;-77
2022/06/14 11:22:51;;;;;;;0.50;0.50;;;;;;;;;;5054051;28;20114;-77
2022/06/14 11:25:20;;;;;;;6.38;1.45;;;;;;;;;;5054854;28;20028;-78
2022/06/14 11:28:01;;;;;;;3.65;0.60;;;;;;;;;;5055610;28;20027;-78
2022/06/14 11:30:48;;;;;;;1.50;0.70;;;;;;;;;;5054935;28;20082;-77
2022/06/14 11:33:22;;;;;;;4.05;1.38;;;;;;;;;;5055279;28;20061;-76
2022/06/14 11:36:06;;;;;;;1.85;0.80;;;;;;;;;;5053659;28;20053;-76
2022/06/14 11:38:50;;;;;;;1.67;0.70;;;;;;;;;;5053600;28;20017;-77
2022/06/14 11:41:17;;;;;;;4.68;0.60;;;;;;;;;;5054911;28;20079;-78
2022/06/14 11:43:42;;;;;;;19.80;2.78;;;;;;;;;;5054913;28;20054;-76
2022/06/14 11:46:20;;;;;;;10.10;2.97;;;;;;;;;;5054918;28;20113;-77
2022/06/14 11:48:55;;;;;;;5.18;1.23;;;;;;;;;;5054757;28;20096;-79
2022/06/14 11:51:43;;;;;;;3.13;0.80;;;;;;;;;;5054538;28;20040;-77
2022/06/14 11:54:16;;;;;;;3.13;0.50;;;;;;;;;;5054564;28;20029;-77
2022/06/14 11:57:00;;;;;;;11.73;2.55;;;;;;;;;;5054597;28;20158;-77
2022/06/14 11:59:25;;;;;;;6.38;3.13;;;;;;;;;;5054999;28;20028;-78
2022/06/14 12:02:05;;;;;;;3.65;1.25;;;;;;;;;;5053185;28;20029;-76
2022/06/14 12:04:37;;;;;;;3.83;0.80;;;;;;;;;;5054350;28;20067;-77
2022/06/14 12:07:14;;;;;;;4.32;1.15;;;;;;;;;;5054093;28;20101;-75
2022/06/14 12:09:42;;;;;;;3.25;0.75;;;;;;;;;;5053853;28;20514;-77
2022/06/14 12:12:15;;;;;;;3.80;0.65;;;;;;;;;;5047365;28;20112;-77
2022/06/14 12:14:52;;;;;;;1.35;0.70;;;;;;;;;;5054478;28;20057;-76
2022/06/14 12:17:26;;;;;;;2.45;0.70;;;;;;;;;;5053802;28;20021;-80
2022/06/14 12:20:03;;;;;;;1.88;0.63;;;;;;;;;;5053959;28;20028;-79
2022/06/14 12:22:38;;;;;;;4.78;1.40;;;;;;;;;;5054213;28;20036;-79
2022/06/14 12:27:55;;;;;;;1.80;0.90;;;;;;;;;;5054174;28;20055;-78
2022/06/14 12:30:24;;;;;;;10.80;1.23;;;;;;;;;;5053016;28;20470;-79
2022/06/14 12:32:53;;;;;;;3.00;1.13;;;;;;;;;;5052602;28;20048;-80
2022/06/14 12:35:32;;;;;;;3.08;0.90;;;;;;;;;;5053834;28;20374;-79
2022/06/14 12:38:07;;;;;;;4.13;1.13;;;;;;;;;;5052336;28;20028;-79
2022/06/14 12:40:52;;;;;;;2.33;0.80;;;;;;;;;;5050460;28;20041;-78
2022/06/14 12:43:29;;;;;;;9.32;2.45;;;;;;;;;;5043202;28;20103;-77
2022/06/14 12:46:05;;;;;;;3.22;1.20;;;;;;;;;;5064117;28;20103;-77
2022/06/14 12:48:52;;;;;;;4.00;1.23;;;;;;;;;;5065521;28;20478;-80
2022/06/14 12:51:41;;;;;;;3.75;0.82;;;;;;;;;;5064870;28;20029;-77
2022/06/14 12:54:10;;;;;;;1.40;0.60;;;;;;;;;;5064397;28;20477;-81
2022/06/14 12:56:42;;;;;;;2.67;0.50;;;;;;;;;;5049307;28;20452;-82
2022/06/14 12:59:08;;;;;;;;;;;;;;;;;;5074679;28;20017;-75
2022/06/14 13:01:44;;;;;;;4.30;0.73;;;;;;;;;;5036719;28;19905;-74
2022/06/14 13:04:19;;;;;;;4.75;1.08;;;;;;;;;;5033093;28;20041;-77
2022/06/14 13:06:53;;;;;;;1.67;0.90;;;;;;;;;;5033344;28;20115;-77
2022/06/14 13:09:24;;;;;;;7.03;1.20;;;;;;;;;;5033575;28;20041;-76
2022/06/14 13:11:51;;;;;;;;;;;;;;;;;;5033637;28;20120;-77
2022/06/14 13:14:23;;;;;;;3.67;0.95;;;;;;;;;;5033562;28;19909;-79
2022/06/14 13:16:58;;;;;;;10.23;1.77;;;;;;;;;;5033336;28;20029;-76
2022/06/14 13:19:43;;;;;;;288.50;52.53;;;;;;;;;;5031639;28;20112;-76
2022/06/14 13:22:15;;;;;;;2.95;1.55;;;;;;;;;;5033178;28;20079;-79
2022/06/14 13:24:56;;;;;;;6.18;1.80;;;;;;;;;;5033340;28;20480;-76
2022/06/14 13:27:35;;;;;;;2.88;1.10;;;;;;;;;;5032306;28;20060;-76
2022/06/14 13:30:12;;;;;;;3.65;1.08;;;;;;;;;;5033102;28;20055;-76
2022/06/14 13:32:49;;;;;;;4.30;0.88;;;;;;;;;;5035662;28;20367;-76
2022/06/14 13:35:34;;;;;;;2.90;0.70;;;;;;;;;;5037042;28;20029;-83
2022/06/14 13:38:05;;;;;;;4.57;0.70;;;;;;;;;;5039214;28;20036;-83
2022/06/14 13:40:31;;;;;;;;;;;;;;;;;;5049588;28;20048;-81
2022/06/14 13:43:02;;;;;;;1.63;0.60;;;;;;;;;;5056393;28;20246;-79
2022/06/14 13:45:27;;;;;;;;;;;;;;;;;;5059178;28;20017;-83
2022/06/14 13:48:12;;;;;;;3.70;0.70;;;;;;;;;;5060165;28;19916;-84
2022/06/14 13:50:46;;;;;;;2.55;0.55;;;;;;;;;;5056585;28;20021;-81
2022/06/14 13:53:21;;;;;;;5.05;1.15;;;;;;;;;;5058256;28;20013;-78
2022/06/14 13:55:49;;;;;;;0.73;0.63;;;;;;;;;;5060368;28;20028;-81
2022/06/14 13:58:20;;;;;;;7.82;1.40;;;;;;;;;;5041539;28;20029;-81
2022/06/14 14:00:56;;;;;;;2.25;0.60;;;;;;;;;;5060942;28;20031;-79
2022/06/14 14:03:30;;;;;;;1.95;0.68;;;;;;;;;;5057887;28;20096;-82
2022/06/14 14:06:21;;;;;;;4.03;0.90;;;;;;;;;;5055062;28;20041;-83
2022/06/14 14:09:01;;;;;;;4.90;1.60;;;;;;;;;;5054030;28;20090;-83